Le Boreal — FLSY — position and weather

sailwx.info

Track history (hours):
 
Tides and Currents Weather Stations Pressure Air Temp Water Temp Dewpoint Dewpoint Depression Visibility Wind Speed Wind Dir Waves Ship Positions

Le Boreal

Last reported at 2017-Jun-28 01:38 UTC. Time now 2017-Jul-20 14:42 UTC.
Position N 70°41' E 020°44'.
Warning: this ship's position is 22 days out of date.

Length 140 m; draft 5.2 m.

Type: Passenger vessel. MMSI: 578000500.

Date/timePositionNaut miles runAvg speedWind from/ knotsBaromVisibWave heightAir tempDewpointWater temp
2017-Jun-28 01:38N 70°41' E 020°44'214.9
2017-Jun-28 01:30N 70°39' E 020°43'815.5
2017-Jun-28 01:00N 70°31' E 020°38'815.2
2017-Jun-28 00:30N 70°24' E 020°32'815.3
2017-Jun-28 00:00N 70°17' E 020°24'815.4
2017-Jun-27 23:30N 70°10' E 020°16'714.4
2017-Jun-27 23:00N 70°03' E 020°08'714.3
2017-Jun-27 22:30N 69°57' E 019°57'815.2
2017-Jun-27 22:00N 69°51' E 019°44'815.8
2017-Jun-27 21:30N 69°48' E 019°23'815.0
2017-Jun-27 21:00N 69°45' E 019°04'3 5.5
2017-Jun-27 20:30N 69°42' E 019°05'0 0.0
2017-Jun-27 19:59N 69°42' E 019°05'0 0.0
2017-Jun-27 19:29N 69°42' E 019°05'0 0.0
2017-Jun-27 18:59N 69°42' E 019°05'0 0.0
2017-Jun-27 18:29N 69°42' E 019°05'0 0.0
2017-Jun-27 17:59N 69°42' E 019°05'0 0.0
2017-Jun-27 17:29N 69°42' E 019°05'0 0.0
2017-Jun-27 17:00N 69°42' E 019°05'3 6.9
2017-Jun-27 16:30N 69°39' E 018°59'1 1.0
2017-Jun-27 15:58N 69°39' E 018°58'0 0.0
2017-Jun-27 15:28N 69°39' E 018°58'0 0.0
2017-Jun-27 14:58N 69°39' E 018°58'0 0.0
2017-Jun-27 13:58N 69°39' E 018°58'0 0.0
2017-Jun-27 13:28N 69°39' E 018°58'0 0.0
2017-Jun-27 12:58N 69°39' E 018°58'0 0.0
2017-Jun-27 12:28N 69°39' E 018°58'0 0.0
2017-Jun-27 11:58N 69°39' E 018°58'0 0.0
2017-Jun-27 11:28N 69°39' E 018°58'0 0.0
2017-Jun-27 10:55N 69°39' E 018°58'0 0.0
2017-Jun-27 10:28N 69°39' E 018°58'0 0.0
2017-Jun-27 09:58N 69°39' E 018°58'0 0.0
2017-Jun-27 09:28N 69°39' E 018°58'0 0.0
2017-Jun-27 08:58N 69°39' E 018°58'0 0.0
2017-Jun-27 08:28N 69°39' E 018°58'0 0.0
2017-Jun-27 07:58N 69°39' E 018°58'0 0.0
2017-Jun-27 07:28N 69°39' E 018°58'0 0.0
2017-Jun-27 06:58N 69°39' E 018°58'0 0.0
2017-Jun-27 06:28N 69°39' E 018°58'0 0.0
2017-Jun-27 06:00N 69°39' E 018°58'1 1.7
2017-Jun-27 05:30N 69°38' E 018°57'4 7.9
2017-Jun-27 04:59N 69°35' E 018°50'4 8.7
2017-Jun-27 04:30N 69°33' E 018°39'713.0
2017-Jun-27 04:00N 69°30' E 018°21'612.3
2017-Jun-27 03:30N 69°27' E 018°07'611.0
2017-Jun-27 03:00N 69°21' E 018°06'511.0
2017-Jun-27 02:30N 69°17' E 017°58'4 9.1
2017-Jun-27 02:00N 69°12' E 018°01'611.1
2017-Jun-27 01:29N 69°08' E 017°48'713.4
2017-Jun-27 01:00N 69°06' E 017°31'713.8
2017-Jun-27 00:30N 69°01' E 017°18'714.5
2017-Jun-27 00:00N 68°56' E 017°05'714.3
2017-Jun-26 23:30N 68°50' E 016°54'714.2
2017-Jun-26 23:00N 68°44' E 016°44'713.9
2017-Jun-26 22:30N 68°38' E 016°35'510.6
2017-Jun-26 22:00N 68°33' E 016°26'611.3
2017-Jun-26 21:30N 68°32' E 016°11'714.4
2017-Jun-26 21:00N 68°25' E 016°04'5 9.5
2017-Jun-26 20:30N 68°21' E 015°58'713.7
2017-Jun-26 20:00N 68°16' E 015°44'713.4
2017-Jun-26 19:30N 68°12' E 015°29'714.2
2017-Jun-26 19:00N 68°10' E 015°11'714.4
2017-Jun-26 18:30N 68°09' E 014°52'714.4
2017-Jun-26 18:00N 68°07' E 014°34'714.4
2017-Jun-26 17:30N 68°05' E 014°15'714.3
2017-Jun-26 17:00N 68°04' E 013°56'713.6
2017-Jun-26 16:30N 68°04' E 013°38'4 6.8
2017-Jun-26 15:59N 68°07' E 013°35'0 0.1
2017-Jun-26 15:29N 68°07' E 013°35'0 0.0
2017-Jun-26 14:59N 68°07' E 013°35'0 0.0
2017-Jun-26 13:59N 68°07' E 013°35'0 0.2
2017-Jun-26 13:30N 68°07' E 013°35'1 1.3
2017-Jun-26 13:00N 68°07' E 013°35'0 0.0
2017-Jun-26 12:30N 68°07' E 013°35'19 4.6
2017-Jun-26 08:24N 67°53' E 013°01'0 0.1
2017-Jun-26 08:00N 67°53' E 013°01'0 0.0
2017-Jun-26 07:30N 67°53' E 013°01'0 0.1
2017-Jun-26 07:00N 67°53' E 013°01'0 0.0
2017-Jun-26 06:30N 67°53' E 013°01'0 0.1
2017-Jun-26 06:00N 67°53' E 013°01'0 0.1
2017-Jun-26 05:30N 67°53' E 013°01'0 0.1
2017-Jun-26 05:00N 67°53' E 013°01'2 4.9
2017-Jun-26 04:30N 67°50' E 013°04'4 8.3
2017-Jun-26 04:00N 67°47' E 013°09'4 8.2
2017-Jun-26 03:30N 67°43' E 013°15'4 8.6
2017-Jun-26 03:00N 67°40' E 013°20'4 8.3
2017-Jun-26 02:30N 67°36' E 013°26'4 8.5
2017-Jun-26 02:00N 67°32' E 013°31'4 8.8
2017-Jun-26 01:30N 67°28' E 013°37'5 9.0
2017-Jun-26 01:00N 67°24' E 013°42'4 9.0
2017-Jun-26 00:30N 67°20' E 013°48'5 9.8
2017-Jun-26 00:00N 67°16' E 013°49'5 9.7
2017-Jun-25 23:30N 67°13' E 013°38'713.9
2017-Jun-25 23:00N 67°09' E 013°24'714.1
2017-Jun-25 22:30N 67°04' E 013°10'714.0
2017-Jun-25 22:00N 66°60' E 012°56'713.8
2017-Jun-25 21:30N 66°55' E 012°42'2513.7
2017-Jun-25 19:38N 66°39' E 011°52'213.7
2017-Jun-25 19:30N 66°38' E 011°49'713.5
2017-Jun-25 19:00N 66°33' E 011°37'24913.6
2017-Jun-25 00:41N 63°05' E 006°19'313.5
2017-Jun-25 00:30N 63°03' E 006°15'713.2
2017-Jun-25 00:00N 62°58' E 006°05'714.0
2017-Jun-24 23:31N 62°52' E 005°56'713.8
2017-Jun-24 23:00N 62°47' E 005°47'714.7
2017-Jun-24 22:30N 62°40' E 005°38'714.1
2017-Jun-24 22:00N 62°33' E 005°39'713.7
2017-Jun-24 21:30N 62°29' E 005°50'713.2
2017-Jun-24 21:00N 62°25' E 006°02'611.2
2017-Jun-24 20:30N 62°23' E 006°14'713.7
2017-Jun-24 20:00N 62°25' E 006°28'713.6
2017-Jun-24 19:30N 62°27' E 006°41'612.8
2017-Jun-24 19:00N 62°25' E 006°55'713.4
2017-Jun-24 18:30N 62°19' E 006°58'713.3
2017-Jun-24 17:59N 62°12' E 007°01'612.0
2017-Jun-24 17:30N 62°06' E 006°58'611.1
2017-Jun-24 17:00N 62°07' E 007°11'1 1.4
2017-Jun-24 16:30N 62°06' E 007°11'0 0.1
2017-Jun-24 16:00N 62°06' E 007°12'0 0.1
2017-Jun-24 15:30N 62°06' E 007°11'0 0.0
2017-Jun-24 15:00N 62°06' E 007°11'0 0.0
2017-Jun-24 14:00N 62°06' E 007°11'0 0.0
2017-Jun-24 13:30N 62°06' E 007°11'0 0.0
2017-Jun-24 13:00N 62°06' E 007°11'0 0.0
2017-Jun-24 12:30N 62°06' E 007°11'0 0.0
2017-Jun-24 12:00N 62°06' E 007°11'0 0.0
2017-Jun-24 11:30N 62°06' E 007°12'0 0.0
2017-Jun-24 11:00N 62°06' E 007°11'0 0.0
2017-Jun-24 10:30N 62°06' E 007°11'0 0.0
2017-Jun-24 10:00N 62°06' E 007°11'0 0.0
2017-Jun-24 09:30N 62°06' E 007°11'0 0.1
2017-Jun-24 09:00N 62°06' E 007°11'2 3.0
2017-Jun-24 08:30N 62°07' E 007°09'4 7.0
2017-Jun-24 08:00N 62°05' E 007°02'4 1.5
2017-Jun-24 05:10N 62°06' E 006°53'2 8.2
2017-Jun-24 04:57N 62°07' E 006°56'511.3
2017-Jun-24 04:30N 62°11' E 007°02'611.1
2017-Jun-24 04:00N 62°17' E 007°01'611.1
2017-Jun-24 03:30N 62°22' E 006°56'510.4
2017-Jun-24 03:00N 62°26' E 006°51'511.1
2017-Jun-24 02:30N 62°27' E 006°40'611.3
2017-Jun-24 02:00N 62°25' E 006°29'611.6
2017-Jun-24 01:30N 62°23' E 006°17'611.7
2017-Jun-24 01:00N 62°20' E 006°06'611.7
2017-Jun-24 00:30N 62°16' E 005°57'511.0
2017-Jun-24 00:00N 62°12' E 005°48'611.8
2017-Jun-23 23:30N 62°11' E 005°36'4 8.9
2017-Jun-23 23:00N 62°11' E 005°26'4 8.6
2017-Jun-23 22:30N 62°12' E 005°17'511.1
2017-Jun-23 22:00N 62°13' E 005°05'510.8
2017-Jun-23 21:30N 62°07' E 005°05'611.8
2017-Jun-23 21:00N 62°02' E 005°09'611.5
2017-Jun-23 20:30N 61°56' E 005°07'5 9.1
2017-Jun-23 20:00N 61°54' E 005°16'612.7
2017-Jun-23 19:30N 61°55' E 005°29'713.0
2017-Jun-23 19:00N 61°53' E 005°43'1 0.1
2017-Jun-23 05:39N 61°54' E 005°41'1 9.6
2017-Jun-23 05:30N 61°54' E 005°38'5 9.6
2017-Jun-23 05:00N 61°55' E 005°28'5 9.1
2017-Jun-23 04:30N 61°54' E 005°19'4 8.4
2017-Jun-23 04:01N 61°53' E 005°10'4 7.3
2017-Jun-23 03:30N 61°50' E 005°16'510.0
2017-Jun-23 03:00N 61°48' E 005°07'510.1
2017-Jun-23 02:30N 61°44' E 004°59'5 9.5
2017-Jun-23 02:00N 61°39' E 004°59'5 9.1
2017-Jun-23 01:30N 61°35' E 004°57'4 8.6
2017-Jun-23 01:00N 61°31' E 005°00'4 8.9
2017-Jun-23 00:30N 61°27' E 004°56'5 9.6
2017-Jun-23 00:00N 61°23' E 004°50'5 9.7
2017-Jun-22 23:30N 61°18' E 004°48'5 9.3
2017-Jun-22 23:00N 61°15' E 004°54'5 9.6
2017-Jun-22 22:30N 61°11' E 005°01'510.0
2017-Jun-22 22:00N 61°08' E 005°08'4 8.7
2017-Jun-22 21:30N 61°04' E 005°02'5 9.4
2017-Jun-22 21:00N 61°02' E 004°54'5 9.7
2017-Jun-22 20:30N 60°59' E 004°46'611.8
2017-Jun-22 20:00N 60°54' E 004°41'612.4
2017-Jun-22 19:30N 60°48' E 004°44'612.8
2017-Jun-22 19:01N 60°42' E 004°50'712.9
2017-Jun-22 18:30N 60°36' E 004°54'713.0
2017-Jun-22 18:00N 60°30' E 004°59'612.6
2017-Jun-22 17:30N 60°25' E 005°06'510.1
2017-Jun-22 17:00N 60°24' E 005°16'1 2.5
2017-Jun-22 16:30N 60°24' E 005°19'0 0.0
2017-Jun-22 16:00N 60°24' E 005°19'0 0.0
2017-Jun-22 15:27N 60°24' E 005°19'0 0.0
2017-Jun-22 15:00N 60°24' E 005°19'0 0.0
2017-Jun-22 14:27N 60°24' E 005°19'0 0.0
2017-Jun-22 13:30N 60°24' E 005°19'0 0.0
2017-Jun-22 13:00N 60°24' E 005°19'0 0.0
2017-Jun-22 12:30N 60°24' E 005°19'0 0.0
2017-Jun-22 12:00N 60°24' E 005°19'0 0.0
2017-Jun-22 11:30N 60°24' E 005°19'0 0.0
2017-Jun-22 11:00N 60°24' E 005°19'0 0.0
2017-Jun-22 10:27N 60°24' E 005°19'0 0.0
2017-Jun-22 10:00N 60°24' E 005°19'0 0.0
2017-Jun-22 09:30N 60°24' E 005°19'0 0.0
2017-Jun-22 09:00N 60°24' E 005°19'0 0.0
2017-Jun-22 08:30N 60°24' E 005°19'0 0.0
2017-Jun-22 08:00N 60°24' E 005°19'0 0.0
2017-Jun-22 07:30N 60°24' E 005°19'0 0.0
2017-Jun-22 07:00N 60°24' E 005°19'0 0.0
2017-Jun-22 06:30N 60°24' E 005°19'0 0.0
2017-Jun-22 06:00N 60°24' E 005°19'0 0.5
2017-Jun-22 05:30N 60°24' E 005°18'3 6.5
2017-Jun-22 05:00N 60°23' E 005°12'5 9.6
2017-Jun-22 04:30N 60°18' E 005°12'612.5
2017-Jun-22 04:00N 60°12' E 005°11'611.4
2017-Jun-22 03:30N 60°09' E 005°02'4 8.2
2017-Jun-22 03:00N 60°06' E 004°55'510.2
2017-Jun-22 02:30N 60°01' E 004°52'510.1
2017-Jun-22 02:00N 59°57' E 004°49'510.0
2017-Jun-22 01:30N 59°52' E 004°45'510.1
2017-Jun-22 01:00N 59°47' E 004°41'67 9.7
2017-Jun-21 18:03N 58°40' E 004°50'111.5
2017-Jun-21 18:00N 58°40' E 004°51'611.6
2017-Jun-21 17:30N 58°36' E 004°58'612.0
2017-Jun-21 17:00N 58°31' E 005°06'1112.0
2017-Jun-21 16:07N 58°23' E 005°20'112.1
2017-Jun-21 16:00N 58°22' E 005°22'611.8
2017-Jun-21 15:30N 58°18' E 005°30'611.7
2017-Jun-21 15:00N 58°15' E 005°38'611.7
2017-Jun-21 14:30N 58°11' E 005°47'1311.5
2017-Jun-21 13:23N 58°03' E 006°06'511.6
2017-Jun-21 13:00N 57°60' E 006°12'511.0
2017-Jun-21 12:30N 57°56' E 006°20'510.5
2017-Jun-21 12:00N 57°53' E 006°27'510.5
2017-Jun-21 11:30N 57°50' E 006°35'510.5
2017-Jun-21 11:00N 57°49' E 006°45'510.7
2017-Jun-21 10:30N 57°48' E 006°55'11411.8
2017-Jun-21 00:48N 57°49' E 010°29'412.6
2017-Jun-21 00:30N 57°49' E 010°36'611.4
2017-Jun-21 00:00N 57°47' E 010°47'713.4
2017-Jun-20 23:30N 57°41' E 010°47'714.1
2017-Jun-20 23:00N 57°34' E 010°45'714.5
2017-Jun-20 22:30N 57°26' E 010°44'31 7.7
2017-Jun-20 18:24N 56°59' E 010°15'612.4
2017-Jun-20 17:57N 57°02' E 010°07'511.1
2017-Jun-20 17:31N 57°05' E 009°59'3 5.2
2017-Jun-20 17:00N 57°03' E 009°55'0 0.0
2017-Jun-20 16:29N 57°03' E 009°55'0 0.0
2017-Jun-20 15:47N 57°03' E 009°55'0 0.0
2017-Jun-20 15:23N 57°03' E 009°55'0 0.0
2017-Jun-20 14:59N 57°03' E 009°55'0 0.0
2017-Jun-20 14:23N 57°03' E 009°55'0 0.0
2017-Jun-20 13:29N 57°03' E 009°55'0 0.0
2017-Jun-20 12:53N 57°03' E 009°55'0 0.0
2017-Jun-20 12:29N 57°03' E 009°55'0 0.0
2017-Jun-20 11:53N 57°03' E 009°55'0 0.0
2017-Jun-20 11:29N 57°03' E 009°55'0 0.0
2017-Jun-20 11:00N 57°03' E 009°55'1 2.2
2017-Jun-20 10:30N 57°03' E 009°57'4 7.3
2017-Jun-20 10:00N 57°03' E 010°04'612.5
2017-Jun-20 09:29N 56°59' E 010°13'87 9.0
2017-Jun-19 23:51N 56°11' E 012°24'310.0
2017-Jun-19 23:30N 56°09' E 012°29'611.1
2017-Jun-19 23:00N 56°05' E 012°37'713.8
2017-Jun-19 22:30N 55°59' E 012°42'714.1
2017-Jun-19 22:01N 55°52' E 012°45'713.4
2017-Jun-19 21:30N 55°46' E 012°41'4 8.9
2017-Jun-19 21:00N 55°42' E 012°36'1 1.2
2017-Jun-19 20:30N 55°41' E 012°36'0 0.0
2017-Jun-19 19:59N 55°41' E 012°36'0 0.0
2017-Jun-19 19:29N 55°41' E 012°36'0 0.0
2017-Jun-19 18:59N 55°41' E 012°36'0 0.0
2017-Jun-19 18:29N 55°41' E 012°36'0 0.0
2017-Jun-19 17:59N 55°41' E 012°36'0 0.0
2017-Jun-19 17:29N 55°41' E 012°36'0 0.0
2017-Jun-19 16:59N 55°41' E 012°36'0 0.0
2017-Jun-19 16:29N 55°41' E 012°36'0 0.0
2017-Jun-19 15:59N 55°41' E 012°36'0 0.0
2017-Jun-19 15:29N 55°41' E 012°36'0 0.0
2017-Jun-19 14:59N 55°41' E 012°36'0 0.0
2017-Jun-19 13:59N 55°41' E 012°36'0 0.0
2017-Jun-19 13:29N 55°41' E 012°36'0 0.0
2017-Jun-19 12:59N 55°41' E 012°36'0 0.0
2017-Jun-19 12:29N 55°41' E 012°36'0 0.0
2017-Jun-19 11:59N 55°41' E 012°36'0 0.0
2017-Jun-19 11:29N 55°41' E 012°36'0 0.0
2017-Jun-19 10:59N 55°41' E 012°36'0 0.0
2017-Jun-19 10:29N 55°41' E 012°36'0 0.0
2017-Jun-19 09:59N 55°41' E 012°36'0 0.0
2017-Jun-19 09:29N 55°41' E 012°36'0 0.0
2017-Jun-19 08:59N 55°41' E 012°36'0 1.0
2017-Jun-19 08:30N 55°42' E 012°36'2 3.9
2017-Jun-19 08:00N 55°43' E 012°39'5 9.1
2017-Jun-19 07:30N 55°39' E 012°42'612.3
2017-Jun-19 07:00N 55°33' E 012°43'612.9
2017-Jun-19 06:30N 55°26' E 012°42'713.6
2017-Jun-19 06:00N 55°20' E 012°41'612.3
2017-Jun-19 05:30N 55°16' E 012°50'713.2
2017-Jun-19 05:00N 55°15' E 013°01'713.2
2017-Jun-19 04:30N 55°15' E 013°13'613.1
2017-Jun-19 04:00N 55°15' E 013°24'713.1
2017-Jun-19 03:30N 55°14' E 013°36'714.7
2017-Jun-19 03:00N 55°14' E 013°49'815.2
2017-Jun-19 02:30N 55°13' E 014°02'815.3
2017-Jun-19 02:01N 55°14' E 014°15'815.0
2017-Jun-19 01:31N 55°19' E 014°25'815.2
2017-Jun-19 01:00N 55°25' E 014°34'815.1
2017-Jun-19 00:30N 55°29' E 014°45'815.4
2017-Jun-19 00:00N 55°33' E 014°56'815.3
2017-Jun-18 23:30N 55°37' E 015°08'715.0
2017-Jun-18 23:01N 55°40' E 015°20'714.8
2017-Jun-18 22:31N 55°44' E 015°31'815.0
2017-Jun-18 22:01N 55°48' E 015°43'815.1
2017-Jun-18 21:31N 55°52' E 015°54'714.9
2017-Jun-18 21:00N 55°56' E 016°05'714.9
2017-Jun-18 20:30N 55°60' E 016°16'715.0
2017-Jun-18 20:00N 56°04' E 016°28'815.2
2017-Jun-18 19:31N 56°08' E 016°39'714.8
2017-Jun-18 19:00N 56°14' E 016°47'98 8.0
2017-Jun-18 06:49N 57°38' E 018°17'0 0.5
2017-Jun-18 06:30N 57°38' E 018°17'1 1.9
2017-Jun-18 06:01N 57°38' E 018°15'4 8.1
2017-Jun-18 05:30N 57°42' E 018°17'611.1
2017-Jun-18 04:57N 57°48' E 018°21'  
Track history (hours):
 
Tides and Currents Weather Stations Pressure Air Temp Water Temp Dewpoint Dewpoint Depression Visibility Wind Speed Wind Dir Waves Ship Positions

Le Boreal

Last reported at 2017-Jun-28 01:38 UTC. Time now 2017-Jul-20 14:42 UTC.
Position N 70°41' E 020°44'.
Warning: this ship's position is 22 days out of date.

Length 140 m; draft 5.2 m.

Type: Passenger vessel. MMSI: 578000500.

Date/timePositionNaut miles runAvg speedWind from/ knotsBaromVisibWave heightAir tempDewpointWater temp
2017-Jun-28 01:38N 70°41' E 020°44'214.9
2017-Jun-28 01:30N 70°39' E 020°43'815.5
2017-Jun-28 01:00N 70°31' E 020°38'815.2
2017-Jun-28 00:30N 70°24' E 020°32'815.3
2017-Jun-28 00:00N 70°17' E 020°24'815.4
2017-Jun-27 23:30N 70°10' E 020°16'714.4
2017-Jun-27 23:00N 70°03' E 020°08'714.3
2017-Jun-27 22:30N 69°57' E 019°57'815.2
2017-Jun-27 22:00N 69°51' E 019°44'815.8
2017-Jun-27 21:30N 69°48' E 019°23'815.0
2017-Jun-27 21:00N 69°45' E 019°04'3 5.5
2017-Jun-27 20:30N 69°42' E 019°05'0 0.0
2017-Jun-27 19:59N 69°42' E 019°05'0 0.0
2017-Jun-27 19:29N 69°42' E 019°05'0 0.0
2017-Jun-27 18:59N 69°42' E 019°05'0 0.0
2017-Jun-27 18:29N 69°42' E 019°05'0 0.0
2017-Jun-27 17:59N 69°42' E 019°05'0 0.0
2017-Jun-27 17:29N 69°42' E 019°05'0 0.0
2017-Jun-27 17:00N 69°42' E 019°05'3 6.9
2017-Jun-27 16:30N 69°39' E 018°59'1 1.0
2017-Jun-27 15:58N 69°39' E 018°58'0 0.0
2017-Jun-27 15:28N 69°39' E 018°58'0 0.0
2017-Jun-27 14:58N 69°39' E 018°58'0 0.0
2017-Jun-27 13:58N 69°39' E 018°58'0 0.0
2017-Jun-27 13:28N 69°39' E 018°58'0 0.0
2017-Jun-27 12:58N 69°39' E 018°58'0 0.0
2017-Jun-27 12:28N 69°39' E 018°58'0 0.0
2017-Jun-27 11:58N 69°39' E 018°58'0 0.0
2017-Jun-27 11:28N 69°39' E 018°58'0 0.0
2017-Jun-27 10:55N 69°39' E 018°58'0 0.0
2017-Jun-27 10:28N 69°39' E 018°58'0 0.0
2017-Jun-27 09:58N 69°39' E 018°58'0 0.0
2017-Jun-27 09:28N 69°39' E 018°58'0 0.0
2017-Jun-27 08:58N 69°39' E 018°58'0 0.0
2017-Jun-27 08:28N 69°39' E 018°58'0 0.0
2017-Jun-27 07:58N 69°39' E 018°58'0 0.0
2017-Jun-27 07:28N 69°39' E 018°58'0 0.0
2017-Jun-27 06:58N 69°39' E 018°58'0 0.0
2017-Jun-27 06:28N 69°39' E 018°58'0 0.0
2017-Jun-27 06:00N 69°39' E 018°58'1 1.7
2017-Jun-27 05:30N 69°38' E 018°57'4 7.9
2017-Jun-27 04:59N 69°35' E 018°50'4 8.7
2017-Jun-27 04:30N 69°33' E 018°39'713.0
2017-Jun-27 04:00N 69°30' E 018°21'612.3
2017-Jun-27 03:30N 69°27' E 018°07'611.0
2017-Jun-27 03:00N 69°21' E 018°06'511.0
2017-Jun-27 02:30N 69°17' E 017°58'4 9.1
2017-Jun-27 02:00N 69°12' E 018°01'611.1
2017-Jun-27 01:29N 69°08' E 017°48'713.4
2017-Jun-27 01:00N 69°06' E 017°31'713.8
2017-Jun-27 00:30N 69°01' E 017°18'714.5
2017-Jun-27 00:00N 68°56' E 017°05'714.3
2017-Jun-26 23:30N 68°50' E 016°54'714.2
2017-Jun-26 23:00N 68°44' E 016°44'713.9
2017-Jun-26 22:30N 68°38' E 016°35'510.6
2017-Jun-26 22:00N 68°33' E 016°26'611.3
2017-Jun-26 21:30N 68°32' E 016°11'714.4
2017-Jun-26 21:00N 68°25' E 016°04'5 9.5
2017-Jun-26 20:30N 68°21' E 015°58'713.7
2017-Jun-26 20:00N 68°16' E 015°44'713.4
2017-Jun-26 19:30N 68°12' E 015°29'714.2
2017-Jun-26 19:00N 68°10' E 015°11'714.4
2017-Jun-26 18:30N 68°09' E 014°52'714.4
2017-Jun-26 18:00N 68°07' E 014°34'714.4
2017-Jun-26 17:30N 68°05' E 014°15'714.3
2017-Jun-26 17:00N 68°04' E 013°56'713.6
2017-Jun-26 16:30N 68°04' E 013°38'4 6.8
2017-Jun-26 15:59N 68°07' E 013°35'0 0.1
2017-Jun-26 15:29N 68°07' E 013°35'0 0.0
2017-Jun-26 14:59N 68°07' E 013°35'0 0.0
2017-Jun-26 13:59N 68°07' E 013°35'0 0.2
2017-Jun-26 13:30N 68°07' E 013°35'1 1.3
2017-Jun-26 13:00N 68°07' E 013°35'0 0.0
2017-Jun-26 12:30N 68°07' E 013°35'19 4.6
2017-Jun-26 08:24N 67°53' E 013°01'0 0.1
2017-Jun-26 08:00N 67°53' E 013°01'0 0.0
2017-Jun-26 07:30N 67°53' E 013°01'0 0.1
2017-Jun-26 07:00N 67°53' E 013°01'0 0.0
2017-Jun-26 06:30N 67°53' E 013°01'0 0.1
2017-Jun-26 06:00N 67°53' E 013°01'0 0.1
2017-Jun-26 05:30N 67°53' E 013°01'0 0.1
2017-Jun-26 05:00N 67°53' E 013°01'2 4.9
2017-Jun-26 04:30N 67°50' E 013°04'4 8.3
2017-Jun-26 04:00N 67°47' E 013°09'4 8.2
2017-Jun-26 03:30N 67°43' E 013°15'4 8.6
2017-Jun-26 03:00N 67°40' E 013°20'4 8.3
2017-Jun-26 02:30N 67°36' E 013°26'4 8.5
2017-Jun-26 02:00N 67°32' E 013°31'4 8.8
2017-Jun-26 01:30N 67°28' E 013°37'5 9.0
2017-Jun-26 01:00N 67°24' E 013°42'4 9.0
2017-Jun-26 00:30N 67°20' E 013°48'5 9.8
2017-Jun-26 00:00N 67°16' E 013°49'5 9.7
2017-Jun-25 23:30N 67°13' E 013°38'713.9
2017-Jun-25 23:00N 67°09' E 013°24'714.1
2017-Jun-25 22:30N 67°04' E 013°10'714.0
2017-Jun-25 22:00N 66°60' E 012°56'713.8
2017-Jun-25 21:30N 66°55' E 012°42'2513.7
2017-Jun-25 19:38N 66°39' E 011°52'213.7
2017-Jun-25 19:30N 66°38' E 011°49'713.5
2017-Jun-25 19:00N 66°33' E 011°37'24913.6
2017-Jun-25 00:41N 63°05' E 006°19'313.5
2017-Jun-25 00:30N 63°03' E 006°15'713.2
2017-Jun-25 00:00N 62°58' E 006°05'714.0
2017-Jun-24 23:31N 62°52' E 005°56'713.8
2017-Jun-24 23:00N 62°47' E 005°47'714.7
2017-Jun-24 22:30N 62°40' E 005°38'714.1
2017-Jun-24 22:00N 62°33' E 005°39'713.7
2017-Jun-24 21:30N 62°29' E 005°50'713.2
2017-Jun-24 21:00N 62°25' E 006°02'611.2
2017-Jun-24 20:30N 62°23' E 006°14'713.7
2017-Jun-24 20:00N 62°25' E 006°28'713.6
2017-Jun-24 19:30N 62°27' E 006°41'612.8
2017-Jun-24 19:00N 62°25' E 006°55'713.4
2017-Jun-24 18:30N 62°19' E 006°58'713.3
2017-Jun-24 17:59N 62°12' E 007°01'612.0
2017-Jun-24 17:30N 62°06' E 006°58'611.1
2017-Jun-24 17:00N 62°07' E 007°11'1 1.4
2017-Jun-24 16:30N 62°06' E 007°11'0 0.1
2017-Jun-24 16:00N 62°06' E 007°12'0 0.1
2017-Jun-24 15:30N 62°06' E 007°11'0 0.0
2017-Jun-24 15:00N 62°06' E 007°11'0 0.0
2017-Jun-24 14:00N 62°06' E 007°11'0 0.0
2017-Jun-24 13:30N 62°06' E 007°11'0 0.0
2017-Jun-24 13:00N 62°06' E 007°11'0 0.0
2017-Jun-24 12:30N 62°06' E 007°11'0 0.0
2017-Jun-24 12:00N 62°06' E 007°11'0 0.0
2017-Jun-24 11:30N 62°06' E 007°12'0 0.0
2017-Jun-24 11:00N 62°06' E 007°11'0 0.0
2017-Jun-24 10:30N 62°06' E 007°11'0 0.0
2017-Jun-24 10:00N 62°06' E 007°11'0 0.0
2017-Jun-24 09:30N 62°06' E 007°11'0 0.1
2017-Jun-24 09:00N 62°06' E 007°11'2 3.0
2017-Jun-24 08:30N 62°07' E 007°09'4 7.0
2017-Jun-24 08:00N 62°05' E 007°02'4 1.5
2017-Jun-24 05:10N 62°06' E 006°53'2 8.2
2017-Jun-24 04:57N 62°07' E 006°56'511.3
2017-Jun-24 04:30N 62°11' E 007°02'611.1
2017-Jun-24 04:00N 62°17' E 007°01'611.1
2017-Jun-24 03:30N 62°22' E 006°56'510.4
2017-Jun-24 03:00N 62°26' E 006°51'511.1
2017-Jun-24 02:30N 62°27' E 006°40'611.3
2017-Jun-24 02:00N 62°25' E 006°29'611.6
2017-Jun-24 01:30N 62°23' E 006°17'611.7
2017-Jun-24 01:00N 62°20' E 006°06'611.7
2017-Jun-24 00:30N 62°16' E 005°57'511.0
2017-Jun-24 00:00N 62°12' E 005°48'611.8
2017-Jun-23 23:30N 62°11' E 005°36'4 8.9
2017-Jun-23 23:00N 62°11' E 005°26'4 8.6
2017-Jun-23 22:30N 62°12' E 005°17'511.1
2017-Jun-23 22:00N 62°13' E 005°05'510.8
2017-Jun-23 21:30N 62°07' E 005°05'611.8
2017-Jun-23 21:00N 62°02' E 005°09'611.5
2017-Jun-23 20:30N 61°56' E 005°07'5 9.1
2017-Jun-23 20:00N 61°54' E 005°16'612.7
2017-Jun-23 19:30N 61°55' E 005°29'713.0
2017-Jun-23 19:00N 61°53' E 005°43'1 0.1
2017-Jun-23 05:39N 61°54' E 005°41'1 9.6
2017-Jun-23 05:30N 61°54' E 005°38'5 9.6
2017-Jun-23 05:00N 61°55' E 005°28'5 9.1
2017-Jun-23 04:30N 61°54' E 005°19'4 8.4
2017-Jun-23 04:01N 61°53' E 005°10'4 7.3
2017-Jun-23 03:30N 61°50' E 005°16'510.0
2017-Jun-23 03:00N 61°48' E 005°07'510.1
2017-Jun-23 02:30N 61°44' E 004°59'5 9.5
2017-Jun-23 02:00N 61°39' E 004°59'5 9.1
2017-Jun-23 01:30N 61°35' E 004°57'4 8.6
2017-Jun-23 01:00N 61°31' E 005°00'4 8.9
2017-Jun-23 00:30N 61°27' E 004°56'5 9.6
2017-Jun-23 00:00N 61°23' E 004°50'5 9.7
2017-Jun-22 23:30N 61°18' E 004°48'5 9.3
2017-Jun-22 23:00N 61°15' E 004°54'5 9.6
2017-Jun-22 22:30N 61°11' E 005°01'510.0
2017-Jun-22 22:00N 61°08' E 005°08'4 8.7
2017-Jun-22 21:30N 61°04' E 005°02'5 9.4
2017-Jun-22 21:00N 61°02' E 004°54'5 9.7
2017-Jun-22 20:30N 60°59' E 004°46'611.8
2017-Jun-22 20:00N 60°54' E 004°41'612.4
2017-Jun-22 19:30N 60°48' E 004°44'612.8
2017-Jun-22 19:01N 60°42' E 004°50'712.9
2017-Jun-22 18:30N 60°36' E 004°54'713.0
2017-Jun-22 18:00N 60°30' E 004°59'612.6
2017-Jun-22 17:30N 60°25' E 005°06'510.1
2017-Jun-22 17:00N 60°24' E 005°16'1 2.5
2017-Jun-22 16:30N 60°24' E 005°19'0 0.0
2017-Jun-22 16:00N 60°24' E 005°19'0 0.0
2017-Jun-22 15:27N 60°24' E 005°19'0 0.0
2017-Jun-22 15:00N 60°24' E 005°19'0 0.0
2017-Jun-22 14:27N 60°24' E 005°19'0 0.0
2017-Jun-22 13:30N 60°24' E 005°19'0 0.0
2017-Jun-22 13:00N 60°24' E 005°19'0 0.0
2017-Jun-22 12:30N 60°24' E 005°19'0 0.0
2017-Jun-22 12:00N 60°24' E 005°19'0 0.0
2017-Jun-22 11:30N 60°24' E 005°19'0 0.0
2017-Jun-22 11:00N 60°24' E 005°19'0 0.0
2017-Jun-22 10:27N 60°24' E 005°19'0 0.0
2017-Jun-22 10:00N 60°24' E 005°19'0 0.0
2017-Jun-22 09:30N 60°24' E 005°19'0 0.0
2017-Jun-22 09:00N 60°24' E 005°19'0 0.0
2017-Jun-22 08:30N 60°24' E 005°19'0 0.0
2017-Jun-22 08:00N 60°24' E 005°19'0 0.0
2017-Jun-22 07:30N 60°24' E 005°19'0 0.0
2017-Jun-22 07:00N 60°24' E 005°19'0 0.0
2017-Jun-22 06:30N 60°24' E 005°19'0 0.0
2017-Jun-22 06:00N 60°24' E 005°19'0 0.5
2017-Jun-22 05:30N 60°24' E 005°18'3 6.5
2017-Jun-22 05:00N 60°23' E 005°12'5 9.6
2017-Jun-22 04:30N 60°18' E 005°12'612.5
2017-Jun-22 04:00N 60°12' E 005°11'611.4
2017-Jun-22 03:30N 60°09' E 005°02'4 8.2
2017-Jun-22 03:00N 60°06' E 004°55'510.2
2017-Jun-22 02:30N 60°01' E 004°52'510.1
2017-Jun-22 02:00N 59°57' E 004°49'510.0
2017-Jun-22 01:30N 59°52' E 004°45'510.1
2017-Jun-22 01:00N 59°47' E 004°41'67 9.7
2017-Jun-21 18:03N 58°40' E 004°50'111.5
2017-Jun-21 18:00N 58°40' E 004°51'611.6
2017-Jun-21 17:30N 58°36' E 004°58'612.0
2017-Jun-21 17:00N 58°31' E 005°06'1112.0
2017-Jun-21 16:07N 58°23' E 005°20'112.1
2017-Jun-21 16:00N 58°22' E 005°22'611.8
2017-Jun-21 15:30N 58°18' E 005°30'611.7
2017-Jun-21 15:00N 58°15' E 005°38'611.7
2017-Jun-21 14:30N 58°11' E 005°47'1311.5
2017-Jun-21 13:23N 58°03' E 006°06'511.6
2017-Jun-21 13:00N 57°60' E 006°12'511.0
2017-Jun-21 12:30N 57°56' E 006°20'510.5
2017-Jun-21 12:00N 57°53' E 006°27'510.5
2017-Jun-21 11:30N 57°50' E 006°35'510.5
2017-Jun-21 11:00N 57°49' E 006°45'510.7
2017-Jun-21 10:30N 57°48' E 006°55'11411.8
2017-Jun-21 00:48N 57°49' E 010°29'412.6
2017-Jun-21 00:30N 57°49' E 010°36'611.4
2017-Jun-21 00:00N 57°47' E 010°47'713.4
2017-Jun-20 23:30N 57°41' E 010°47'714.1
2017-Jun-20 23:00N 57°34' E 010°45'714.5
2017-Jun-20 22:30N 57°26' E 010°44'31 7.7
2017-Jun-20 18:24N 56°59' E 010°15'612.4
2017-Jun-20 17:57N 57°02' E 010°07'511.1
2017-Jun-20 17:31N 57°05' E 009°59'3 5.2
2017-Jun-20 17:00N 57°03' E 009°55'0 0.0
2017-Jun-20 16:29N 57°03' E 009°55'0 0.0
2017-Jun-20 15:47N 57°03' E 009°55'0 0.0
2017-Jun-20 15:23N 57°03' E 009°55'0 0.0
2017-Jun-20 14:59N 57°03' E 009°55'0 0.0
2017-Jun-20 14:23N 57°03' E 009°55'0 0.0
2017-Jun-20 13:29N 57°03' E 009°55'0 0.0
2017-Jun-20 12:53N 57°03' E 009°55'0 0.0
2017-Jun-20 12:29N 57°03' E 009°55'0 0.0
2017-Jun-20 11:53N 57°03' E 009°55'0 0.0
2017-Jun-20 11:29N 57°03' E 009°55'0 0.0
2017-Jun-20 11:00N 57°03' E 009°55'1 2.2
2017-Jun-20 10:30N 57°03' E 009°57'4 7.3
2017-Jun-20 10:00N 57°03' E 010°04'612.5
2017-Jun-20 09:29N 56°59' E 010°13'87 9.0
2017-Jun-19 23:51N 56°11' E 012°24'310.0
2017-Jun-19 23:30N 56°09' E 012°29'611.1
2017-Jun-19 23:00N 56°05' E 012°37'713.8
2017-Jun-19 22:30N 55°59' E 012°42'714.1
2017-Jun-19 22:01N 55°52' E 012°45'713.4
2017-Jun-19 21:30N 55°46' E 012°41'4 8.9
2017-Jun-19 21:00N 55°42' E 012°36'1 1.2
2017-Jun-19 20:30N 55°41' E 012°36'0 0.0
2017-Jun-19 19:59N 55°41' E 012°36'0 0.0
2017-Jun-19 19:29N 55°41' E 012°36'0 0.0
2017-Jun-19 18:59N 55°41' E 012°36'0 0.0
2017-Jun-19 18:29N 55°41' E 012°36'0 0.0
2017-Jun-19 17:59N 55°41' E 012°36'0 0.0
2017-Jun-19 17:29N 55°41' E 012°36'0 0.0
2017-Jun-19 16:59N 55°41' E 012°36'0 0.0
2017-Jun-19 16:29N 55°41' E 012°36'0 0.0
2017-Jun-19 15:59N 55°41' E 012°36'0 0.0
2017-Jun-19 15:29N 55°41' E 012°36'0 0.0
2017-Jun-19 14:59N 55°41' E 012°36'0 0.0
2017-Jun-19 13:59N 55°41' E 012°36'0 0.0
2017-Jun-19 13:29N 55°41' E 012°36'0 0.0
2017-Jun-19 12:59N 55°41' E 012°36'0 0.0
2017-Jun-19 12:29N 55°41' E 012°36'0 0.0
2017-Jun-19 11:59N 55°41' E 012°36'0 0.0
2017-Jun-19 11:29N 55°41' E 012°36'0 0.0
2017-Jun-19 10:59N 55°41' E 012°36'0 0.0
2017-Jun-19 10:29N 55°41' E 012°36'0 0.0
2017-Jun-19 09:59N 55°41' E 012°36'0 0.0
2017-Jun-19 09:29N 55°41' E 012°36'0 0.0
2017-Jun-19 08:59N 55°41' E 012°36'0 1.0
2017-Jun-19 08:30N 55°42' E 012°36'2 3.9
2017-Jun-19 08:00N 55°43' E 012°39'5 9.1
2017-Jun-19 07:30N 55°39' E 012°42'612.3
2017-Jun-19 07:00N 55°33' E 012°43'612.9
2017-Jun-19 06:30N 55°26' E 012°42'713.6
2017-Jun-19 06:00N 55°20' E 012°41'612.3
2017-Jun-19 05:30N 55°16' E 012°50'713.2
2017-Jun-19 05:00N 55°15' E 013°01'713.2
2017-Jun-19 04:30N 55°15' E 013°13'613.1
2017-Jun-19 04:00N 55°15' E 013°24'713.1
2017-Jun-19 03:30N 55°14' E 013°36'714.7
2017-Jun-19 03:00N 55°14' E 013°49'815.2
2017-Jun-19 02:30N 55°13' E 014°02'815.3
2017-Jun-19 02:01N 55°14' E 014°15'815.0
2017-Jun-19 01:31N 55°19' E 014°25'815.2
2017-Jun-19 01:00N 55°25' E 014°34'815.1
2017-Jun-19 00:30N 55°29' E 014°45'815.4
2017-Jun-19 00:00N 55°33' E 014°56'815.3
2017-Jun-18 23:30N 55°37' E 015°08'715.0
2017-Jun-18 23:01N 55°40' E 015°20'714.8
2017-Jun-18 22:31N 55°44' E 015°31'815.0
2017-Jun-18 22:01N 55°48' E 015°43'815.1
2017-Jun-18 21:31N 55°52' E 015°54'714.9
2017-Jun-18 21:00N 55°56' E 016°05'714.9
2017-Jun-18 20:30N 55°60' E 016°16'715.0
2017-Jun-18 20:00N 56°04' E 016°28'815.2
2017-Jun-18 19:31N 56°08' E 016°39'714.8
2017-Jun-18 19:00N 56°14' E 016°47'98 8.0
2017-Jun-18 06:49N 57°38' E 018°17'0 0.5
2017-Jun-18 06:30N 57°38' E 018°17'1 1.9
2017-Jun-18 06:01N 57°38' E 018°15'4 8.1
2017-Jun-18 05:30N 57°42' E 018°17'611.1
2017-Jun-18 04:57N 57°48' E 018°21'  

Dump ship's entire track history